createdAt,value
2019-05-18T00:00:10.044Z,11.00
2019-05-18T00:01:09.999Z,11.05
2019-05-18T00:02:09.990Z,10.98
2019-05-18T00:03:09.979Z,11.00
2019-05-18T00:04:09.967Z,10.97
2019-05-18T00:05:09.990Z,11.01
2019-05-18T00:06:09.952Z,10.97
2019-05-18T00:07:09.933Z,11.00
2019-05-18T00:08:09.922Z,10.95
2019-05-18T00:09:09.912Z,10.97
2019-05-18T00:10:09.900Z,10.94
2019-05-18T00:11:09.942Z,10.97
2019-05-18T00:12:09.889Z,10.98
2019-05-18T00:13:09.868Z,10.90
2019-05-18T00:14:09.856Z,10.91
2019-05-18T00:15:09.845Z,10.87
2019-05-18T00:16:09.837Z,10.87
2019-05-18T00:17:24.498Z,10.85
2019-05-18T00:18:10.837Z,10.73
2019-05-18T00:19:09.804Z,10.83
2019-05-18T00:20:09.790Z,10.80
2019-05-18T00:21:09.782Z,10.76
2019-05-18T00:22:09.769Z,10.75
2019-05-18T00:23:09.790Z,10.65
2019-05-18T00:24:09.761Z,10.64
2019-05-18T00:25:09.743Z,10.60
2019-05-18T00:26:09.724Z,10.70
2019-05-18T00:27:09.719Z,10.64
2019-05-18T00:28:09.703Z,10.58
2019-05-18T00:29:09.742Z,10.67
2019-05-18T00:30:09.701Z,10.54
2019-05-18T00:31:09.671Z,10.62
2019-05-18T00:32:09.669Z,10.58
2019-05-18T00:33:09.649Z,10.52
2019-05-18T00:34:09.641Z,10.55
2019-05-18T00:35:09.667Z,10.45
2019-05-18T00:36:09.636Z,10.45
2019-05-18T00:37:09.607Z,10.49
2019-05-18T00:38:09.597Z,10.43
2019-05-18T00:39:09.583Z,10.42
2019-05-18T00:40:09.573Z,10.41
2019-05-18T00:41:09.638Z,10.42
2019-05-18T00:42:09.574Z,10.38
2019-05-18T00:43:09.541Z,10.45
2019-05-18T00:44:09.530Z,10.35
2019-05-18T00:45:09.517Z,10.31
2019-05-18T00:46:09.505Z,10.30
2019-05-18T00:47:09.546Z,10.30
2019-05-18T00:48:09.498Z,10.28
2019-05-18T00:49:09.477Z,10.30
2019-05-18T00:50:09.463Z,10.30
2019-05-18T00:51:09.456Z,10.34
2019-05-18T00:52:09.446Z,10.26
2019-05-18T00:53:09.694Z,10.21
2019-05-18T00:54:09.468Z,10.24
2019-05-18T00:55:09.413Z,10.21
2019-05-18T00:56:09.401Z,10.18
2019-05-18T00:57:09.385Z,10.20
2019-05-18T00:58:09.382Z,10.10
2019-05-18T00:59:09.394Z,10.12
2019-05-18T01:00:09.373Z,10.10
2019-05-18T01:01:09.346Z,10.12
2019-05-18T01:02:09.335Z,10.05
2019-05-18T01:03:09.323Z,10.10
2019-05-18T01:04:09.309Z,10.03
2019-05-18T01:05:09.493Z,9.99
2019-05-18T01:06:09.306Z,9.96
2019-05-18T01:07:09.276Z,9.98
2019-05-18T01:08:09.272Z,9.99
2019-05-18T01:09:09.257Z,10.02
2019-05-18T01:10:09.263Z,10.01
2019-05-18T01:11:09.283Z,10.03
2019-05-18T01:12:09.240Z,10.01
2019-05-18T01:13:09.209Z,10.01
2019-05-18T01:14:09.199Z,10.06
2019-05-18T01:15:09.196Z,10.02
2019-05-18T01:16:09.180Z,10.02
2019-05-18T01:17:09.215Z,9.99
2019-05-18T01:18:09.168Z,10.06
2019-05-18T01:19:09.153Z,10.05
2019-05-18T01:20:09.134Z,9.85
2019-05-18T01:21:09.123Z,9.91
2019-05-18T01:22:09.112Z,9.88
2019-05-18T01:23:09.135Z,9.90
2019-05-18T01:24:09.105Z,9.90
2019-05-18T01:25:09.085Z,9.93
2019-05-18T01:26:09.073Z,9.84
2019-05-18T01:27:09.056Z,9.87
2019-05-18T01:28:09.044Z,9.88
2019-05-18T01:29:09.083Z,9.87
2019-05-18T01:30:09.036Z,9.88
2019-05-18T01:31:09.021Z,9.85
2019-05-18T01:32:09.006Z,9.84
2019-05-18T01:33:09.043Z,9.83
2019-05-18T01:34:08.981Z,9.83
2019-05-18T01:35:09.008Z,9.65
2019-05-18T01:36:08.968Z,9.80
2019-05-18T01:37:08.948Z,9.77
2019-05-18T01:38:08.936Z,9.73
2019-05-18T01:39:08.927Z,9.78
2019-05-18T01:40:08.912Z,9.77
2019-05-18T01:41:08.957Z,9.80
2019-05-18T01:42:08.902Z,9.78
2019-05-18T01:43:08.881Z,9.80
2019-05-18T01:44:08.870Z,9.87
2019-05-18T01:45:17.003Z,9.80
2019-05-18T01:46:09.883Z,9.84
2019-05-18T01:47:08.840Z,9.84
2019-05-18T01:48:14.207Z,9.90
2019-05-18T01:49:09.816Z,9.83
2019-05-18T01:50:08.805Z,9.90
2019-05-18T01:51:08.797Z,9.85
2019-05-18T01:52:08.820Z,9.93
2019-05-18T01:53:08.770Z,9.88
2019-05-18T01:54:08.772Z,9.91
2019-05-18T01:55:08.751Z,9.88
2019-05-18T01:56:08.739Z,9.88
2019-05-18T01:57:08.727Z,9.93
2019-05-18T01:58:08.752Z,10.01
2019-05-18T01:59:08.708Z,9.94
2019-05-18T02:00:08.710Z,9.98
2019-05-18T02:01:08.686Z,9.96
2019-05-18T02:02:08.672Z,9.99
2019-05-18T02:03:08.661Z,10.03
2019-05-18T02:04:08.691Z,9.99
2019-05-18T02:05:08.650Z,10.02
2019-05-18T02:06:08.641Z,9.99
2019-05-18T02:07:08.627Z,10.03
2019-05-18T02:08:08.607Z,9.99
2019-05-18T02:09:08.599Z,10.01
2019-05-18T02:10:08.623Z,10.05
2019-05-18T02:11:08.574Z,10.16
2019-05-18T02:12:08.579Z,10.12
2019-05-18T02:13:08.558Z,10.12
2019-05-18T02:14:08.540Z,10.17
2019-05-18T02:15:08.533Z,10.17
2019-05-18T02:16:08.570Z,10.10
2019-05-18T02:17:08.512Z,10.10
2019-05-18T02:18:08.519Z,10.05
2019-05-18T02:19:08.495Z,10.05
2019-05-18T02:20:08.474Z,10.03
2019-05-18T02:21:08.466Z,10.03
2019-05-18T02:22:08.483Z,10.18
2019-05-18T02:23:08.440Z,10.12
2019-05-18T02:24:08.469Z,10.03
2019-05-18T02:25:08.422Z,10.02
2019-05-18T02:26:08.407Z,10.06
2019-05-18T02:27:08.410Z,10.01
2019-05-18T02:28:08.441Z,10.06
2019-05-18T02:29:08.376Z,10.05
2019-05-18T02:30:08.412Z,10.02
2019-05-18T02:31:08.355Z,10.03
2019-05-18T02:32:08.342Z,10.08
2019-05-18T02:33:08.331Z,10.03
2019-05-18T02:34:08.473Z,10.01
2019-05-18T02:35:08.317Z,10.06
2019-05-18T02:36:08.327Z,10.02
2019-05-18T02:37:08.297Z,10.02
2019-05-18T02:38:08.279Z,10.01
2019-05-18T02:39:08.270Z,9.99
2019-05-18T02:40:08.414Z,10.06
2019-05-18T02:41:08.246Z,10.05
2019-05-18T02:42:08.251Z,10.14
2019-05-18T02:43:08.226Z,10.10
2019-05-18T02:44:08.214Z,10.14
2019-05-18T02:45:08.203Z,10.08
2019-05-18T02:46:08.234Z,10.12
2019-05-18T02:47:08.181Z,10.18
2019-05-18T02:48:08.181Z,10.14
2019-05-18T02:49:08.155Z,10.21
2019-05-18T02:50:08.149Z,10.24
2019-05-18T02:51:11.413Z,10.24
2019-05-18T02:52:08.246Z,10.30
2019-05-18T02:53:08.115Z,10.23
2019-05-18T02:54:08.120Z,10.30
2019-05-18T02:55:08.093Z,10.31
2019-05-18T02:56:08.080Z,10.30
2019-05-18T02:57:08.076Z,10.30
2019-05-18T02:58:08.092Z,10.24
2019-05-18T02:59:08.046Z,10.31
2019-05-18T03:00:08.053Z,10.27
2019-05-18T03:01:08.025Z,10.26
2019-05-18T03:02:08.019Z,10.28
2019-05-18T03:03:08.005Z,10.27
2019-05-18T03:04:08.041Z,10.30
2019-05-18T03:05:07.987Z,10.34
2019-05-18T03:06:07.976Z,10.30
2019-05-18T03:07:07.963Z,10.31
2019-05-18T03:08:07.949Z,10.39
2019-05-18T03:09:07.944Z,10.42
2019-05-18T03:10:08.125Z,10.43
2019-05-18T03:11:07.917Z,10.38
2019-05-18T03:12:07.922Z,10.39
2019-05-18T03:13:07.892Z,10.39
2019-05-18T03:14:07.962Z,10.38
2019-05-18T03:15:07.881Z,10.43
2019-05-18T03:16:07.901Z,10.39
2019-05-18T03:17:07.882Z,10.38
2019-05-18T03:18:07.863Z,10.43
2019-05-18T03:19:09.180Z,10.42
2019-05-18T03:20:07.825Z,10.39
2019-05-18T03:21:07.813Z,10.41
2019-05-18T03:22:07.837Z,10.34
2019-05-18T03:23:07.783Z,10.41
2019-05-18T03:24:07.781Z,10.34
2019-05-18T03:25:07.764Z,10.43
2019-05-18T03:26:07.749Z,10.45
2019-05-18T03:27:07.739Z,10.41
2019-05-18T03:28:07.764Z,10.39
2019-05-18T03:29:07.783Z,10.39
2019-05-18T03:30:07.727Z,10.34
2019-05-18T03:31:07.868Z,10.42
2019-05-18T03:32:07.685Z,10.34
2019-05-18T03:33:07.677Z,10.39
2019-05-18T03:34:07.726Z,10.35
2019-05-18T03:35:07.660Z,10.31
2019-05-18T03:36:07.655Z,10.39
2019-05-18T03:37:07.627Z,10.35
2019-05-18T03:38:07.622Z,10.39
2019-05-18T03:39:07.607Z,10.31
2019-05-18T03:40:07.787Z,10.43
2019-05-18T03:41:07.585Z,10.38
2019-05-18T03:42:07.601Z,10.41
2019-05-18T03:43:07.562Z,10.39
2019-05-18T03:44:07.551Z,10.36
2019-05-18T03:45:07.547Z,10.36
2019-05-18T03:46:07.563Z,10.39
2019-05-18T03:47:07.516Z,10.41
2019-05-18T03:48:07.524Z,10.43
2019-05-18T03:49:23.654Z,10.46
2019-05-18T03:50:08.484Z,10.42
2019-05-18T03:51:07.474Z,10.46
2019-05-18T03:52:07.491Z,10.49
2019-05-18T03:53:07.453Z,10.54
2019-05-18T03:54:07.450Z,10.60
2019-05-18T03:55:07.431Z,10.55
2019-05-18T03:56:07.420Z,10.49
2019-05-18T03:57:07.409Z,10.61
2019-05-18T03:58:07.449Z,10.60
2019-05-18T03:59:07.391Z,10.60
2019-05-18T04:00:07.397Z,10.58
2019-05-18T04:01:07.363Z,10.55
2019-05-18T04:02:07.352Z,10.55
2019-05-18T04:03:07.343Z,10.67
2019-05-18T04:04:07.384Z,10.64
2019-05-18T04:05:07.339Z,10.60
2019-05-18T04:06:07.319Z,10.58
2019-05-18T04:07:07.300Z,10.60
2019-05-18T04:08:07.289Z,10.70
2019-05-18T04:09:07.293Z,10.68
2019-05-18T04:10:07.297Z,10.70
2019-05-18T04:11:07.256Z,10.68
2019-05-18T04:12:07.264Z,10.68
2019-05-18T04:13:07.233Z,10.64
2019-05-18T04:14:08.323Z,10.64
2019-05-18T04:15:07.216Z,10.67
2019-05-18T04:16:07.236Z,10.67
2019-05-18T04:17:07.193Z,10.75
2019-05-18T04:18:07.197Z,10.76
2019-05-18T04:19:07.166Z,10.78
2019-05-18T04:20:07.159Z,10.79
2019-05-18T04:21:07.148Z,10.75
2019-05-18T04:22:07.181Z,10.79
2019-05-18T04:23:07.124Z,10.82
2019-05-18T04:24:07.132Z,10.86
2019-05-18T04:25:07.131Z,10.87
2019-05-18T04:26:07.098Z,10.91
2019-05-18T04:27:07.078Z,10.86
2019-05-18T04:28:07.095Z,10.93
2019-05-18T04:29:07.056Z,11.00
2019-05-18T04:30:07.061Z,10.95
2019-05-18T04:31:07.053Z,11.01
2019-05-18T04:32:07.034Z,10.98
2019-05-18T04:33:07.015Z,10.94
2019-05-18T04:34:07.116Z,10.98
2019-05-18T04:35:06.991Z,11.03
2019-05-18T04:36:06.999Z,11.01
2019-05-18T04:37:06.974Z,11.11
2019-05-18T04:38:06.965Z,11.12
2019-05-18T04:39:06.949Z,11.11
2019-05-18T04:40:06.971Z,11.12
2019-05-18T04:41:06.930Z,11.15
2019-05-18T04:42:06.934Z,11.23
2019-05-18T04:43:06.902Z,11.16
2019-05-18T04:44:06.892Z,11.12
2019-05-18T04:45:06.903Z,11.20
2019-05-18T04:46:06.911Z,11.20
2019-05-18T04:47:06.865Z,11.22
2019-05-18T04:48:06.861Z,11.27
2019-05-18T04:49:06.838Z,11.23
2019-05-18T04:50:06.827Z,11.37
2019-05-18T04:51:06.818Z,11.37
2019-05-18T04:52:06.849Z,11.38
2019-05-18T04:53:06.798Z,11.43
2019-05-18T04:54:06.802Z,11.40
2019-05-18T04:55:06.785Z,11.45
2019-05-18T04:56:06.761Z,11.49
2019-05-18T04:57:06.751Z,11.55
2019-05-18T04:58:06.771Z,11.52
2019-05-18T04:59:06.733Z,11.55
2019-05-18T05:00:06.719Z,11.67
2019-05-18T05:01:06.713Z,11.66
2019-05-18T05:02:06.736Z,11.70
2019-05-18T05:03:06.685Z,11.73
2019-05-18T05:04:06.713Z,11.73
2019-05-18T05:05:06.663Z,11.79
2019-05-18T05:06:06.654Z,11.77
2019-05-18T05:07:06.642Z,11.84
2019-05-18T05:08:06.644Z,11.89
2019-05-18T05:09:06.625Z,11.84
2019-05-18T05:10:06.648Z,11.80
2019-05-18T05:11:06.596Z,11.79
2019-05-18T05:12:06.590Z,11.93
2019-05-18T05:13:06.578Z,11.96
2019-05-18T05:14:06.570Z,11.95
2019-05-18T05:15:06.557Z,11.96
2019-05-18T05:16:06.575Z,11.93
2019-05-18T05:17:06.534Z,12.05
2019-05-18T05:18:06.522Z,11.99
2019-05-18T05:19:08.664Z,12.04
2019-05-18T05:20:18.773Z,12.07
2019-05-18T05:21:07.529Z,12.08
2019-05-18T05:22:06.478Z,12.07
2019-05-18T05:23:06.471Z,12.11
2019-05-18T05:24:06.456Z,12.17
2019-05-18T05:25:06.448Z,12.07
2019-05-18T05:26:06.448Z,12.07
2019-05-18T05:27:06.476Z,12.17
2019-05-18T05:28:06.414Z,12.07
2019-05-18T05:29:06.407Z,12.14
2019-05-18T05:30:06.393Z,12.18
2019-05-18T05:31:06.384Z,12.18
2019-05-18T05:32:06.393Z,12.13
2019-05-18T05:33:06.405Z,12.11
2019-05-18T05:34:06.351Z,12.15
2019-05-18T05:35:06.342Z,12.13
2019-05-18T05:36:06.334Z,12.14
2019-05-18T05:37:06.322Z,12.18
2019-05-18T05:38:06.312Z,12.23
2019-05-18T05:39:06.357Z,12.23
2019-05-18T05:40:06.310Z,12.26
2019-05-18T05:41:06.276Z,12.23
2019-05-18T05:42:06.263Z,12.26
2019-05-18T05:43:06.252Z,12.33
2019-05-18T05:44:06.244Z,12.35
2019-05-18T05:45:06.306Z,12.44
2019-05-18T05:46:06.219Z,12.44
2019-05-18T05:47:06.210Z,12.43
2019-05-18T05:48:06.201Z,12.48
2019-05-18T05:49:06.189Z,12.47
2019-05-18T05:50:06.182Z,12.53
2019-05-18T05:51:06.199Z,12.53
2019-05-18T05:52:06.169Z,12.59
2019-05-18T05:53:06.144Z,12.62
2019-05-18T05:54:06.136Z,12.53
2019-05-18T05:55:06.142Z,12.53
2019-05-18T05:56:06.111Z,12.68
2019-05-18T05:57:06.135Z,12.69
2019-05-18T05:58:06.105Z,12.77
2019-05-18T05:59:06.081Z,12.87
2019-05-18T06:00:06.070Z,12.88
2019-05-18T06:01:06.059Z,12.90
2019-05-18T06:02:06.047Z,12.95
2019-05-18T06:03:06.090Z,12.96
2019-05-18T06:04:06.039Z,13.04
2019-05-18T06:05:06.012Z,13.14
2019-05-18T06:06:05.998Z,13.27
2019-05-18T06:07:05.988Z,13.27
2019-05-18T06:08:06.010Z,13.38
2019-05-18T06:09:06.016Z,13.51
2019-05-18T06:10:05.971Z,13.51
2019-05-18T06:11:05.960Z,13.53
2019-05-18T06:12:05.935Z,13.49
2019-05-18T06:13:05.923Z,13.57
2019-05-18T06:14:05.916Z,13.55
2019-05-18T06:15:05.951Z,13.67
2019-05-18T06:16:05.898Z,13.73
2019-05-18T06:17:08.421Z,13.64
2019-05-18T06:18:05.866Z,13.76
2019-05-18T06:19:05.859Z,13.75
2019-05-18T06:20:05.846Z,13.90
2019-05-18T06:21:05.866Z,13.80
2019-05-18T06:22:05.825Z,13.85
2019-05-18T06:23:05.845Z,13.80
2019-05-18T06:24:05.862Z,13.94
2019-05-18T06:25:05.843Z,13.94
2019-05-18T06:26:05.801Z,13.96
2019-05-18T06:27:05.824Z,14.01
2019-05-18T06:28:05.760Z,14.05
2019-05-18T06:29:05.769Z,14.08
2019-05-18T06:30:05.729Z,14.15
2019-05-18T06:31:05.718Z,14.18
2019-05-18T06:32:05.718Z,14.16
2019-05-18T06:33:05.749Z,14.13
2019-05-18T06:34:05.716Z,14.23
2019-05-18T06:35:05.784Z,14.21
2019-05-18T06:36:05.717Z,14.21
2019-05-18T06:37:05.661Z,14.27
2019-05-18T06:38:05.654Z,14.28
2019-05-18T06:39:05.690Z,14.34
2019-05-18T06:40:05.627Z,14.33
2019-05-18T06:41:05.639Z,14.40
2019-05-18T06:42:05.602Z,14.41
2019-05-18T06:43:05.627Z,14.45
2019-05-18T06:44:05.592Z,14.40
2019-05-18T06:45:05.630Z,14.46
2019-05-18T06:46:05.562Z,14.55
2019-05-18T06:47:05.570Z,14.56
2019-05-18T06:48:05.548Z,14.59
2019-05-18T06:49:05.525Z,14.66
2019-05-18T06:50:05.532Z,14.83
2019-05-18T06:51:07.485Z,14.74
2019-05-18T06:52:05.503Z,14.82
2019-05-18T06:53:05.482Z,14.87
2019-05-18T06:54:05.472Z,14.93
2019-05-18T06:55:05.479Z,14.96
2019-05-18T06:56:05.447Z,15.03
2019-05-18T06:57:05.571Z,15.12
2019-05-18T06:58:05.502Z,15.08
2019-05-18T06:59:05.431Z,14.95
2019-05-18T07:00:05.460Z,14.96
2019-05-18T07:01:05.400Z,14.89
2019-05-18T07:02:05.443Z,14.95
2019-05-18T07:03:05.441Z,14.78
2019-05-18T07:04:05.383Z,14.67
2019-05-18T07:05:05.362Z,14.86
2019-05-18T07:06:05.342Z,14.89
2019-05-18T07:07:05.341Z,15.03
2019-05-18T07:08:05.315Z,15.01
2019-05-18T07:09:05.357Z,15.12
2019-05-18T07:10:05.309Z,15.19
2019-05-18T07:11:05.288Z,15.17
2019-05-18T07:12:05.270Z,15.25
2019-05-18T07:13:05.265Z,15.29
2019-05-18T07:14:05.262Z,15.29
2019-05-18T07:15:05.296Z,15.32
2019-05-18T07:16:05.234Z,15.33
2019-05-18T07:17:05.230Z,15.43
2019-05-18T07:18:05.205Z,15.48
2019-05-18T07:19:05.210Z,15.69
2019-05-18T07:20:05.199Z,15.69
2019-05-18T07:21:05.234Z,15.81
2019-05-18T07:22:05.203Z,15.88
2019-05-18T07:23:05.163Z,15.90
2019-05-18T07:24:05.172Z,16.02
2019-05-18T07:25:05.205Z,16.13
2019-05-18T07:26:05.120Z,16.16
2019-05-18T07:27:05.168Z,16.34
2019-05-18T07:28:05.348Z,16.36
2019-05-18T07:29:05.885Z,16.21
2019-05-18T07:30:05.099Z,16.33
2019-05-18T07:31:05.084Z,16.22
2019-05-18T07:32:05.087Z,16.36
2019-05-18T07:33:05.134Z,16.58
2019-05-18T07:34:05.218Z,16.55
2019-05-18T07:35:05.040Z,16.69
2019-05-18T07:36:05.069Z,16.87
2019-05-18T07:37:05.074Z,16.59
2019-05-18T07:38:05.036Z,16.74
2019-05-18T07:39:05.160Z,16.72
2019-05-18T07:40:04.991Z,16.73
2019-05-18T07:41:05.049Z,16.74
2019-05-18T07:42:05.048Z,16.91
2019-05-18T07:43:05.022Z,16.84
2019-05-18T07:44:04.919Z,16.83
2019-05-18T07:45:05.083Z,16.97
2019-05-18T07:46:04.912Z,16.91
2019-05-18T07:47:04.903Z,16.95
2019-05-18T07:48:04.878Z,17.01
2019-05-18T07:49:04.865Z,17.07
2019-05-18T07:50:04.881Z,17.06
2019-05-18T07:51:04.895Z,16.99
2019-05-18T07:52:04.840Z,16.92
2019-05-18T07:53:04.825Z,16.88
2019-05-18T07:54:04.820Z,16.94
2019-05-18T07:55:04.916Z,16.92
2019-05-18T07:56:04.828Z,16.84
2019-05-18T07:57:04.946Z,16.82
2019-05-18T07:58:04.783Z,16.73
2019-05-18T07:59:04.756Z,16.67
2019-05-18T08:00:04.749Z,16.74
2019-05-18T08:01:04.838Z,16.76
2019-05-18T08:02:04.777Z,16.73
2019-05-18T08:03:04.804Z,16.70
2019-05-18T08:04:04.711Z,16.67
2019-05-18T08:05:04.719Z,16.74
2019-05-18T08:06:04.680Z,16.77
2019-05-18T08:07:04.688Z,16.73
2019-05-18T08:08:04.670Z,16.76
2019-05-18T08:09:04.691Z,16.87
2019-05-18T08:10:04.641Z,16.73
2019-05-18T08:11:04.629Z,16.72
2019-05-18T08:12:04.612Z,16.94
2019-05-18T08:13:04.602Z,16.91
2019-05-18T08:14:04.598Z,16.99
2019-05-18T08:15:04.612Z,17.07
2019-05-18T08:16:04.571Z,17.16
2019-05-18T08:17:04.556Z,17.20
2019-05-18T08:18:04.544Z,17.20
2019-05-18T08:19:04.536Z,17.20
2019-05-18T08:20:04.523Z,17.35
2019-05-18T08:21:04.624Z,17.28
2019-05-18T08:22:04.512Z,17.30
2019-05-18T08:23:04.519Z,17.28
2019-05-18T08:24:04.527Z,17.34
2019-05-18T08:25:04.475Z,17.43
2019-05-18T08:26:04.466Z,17.38
2019-05-18T08:27:04.479Z,17.34
2019-05-18T08:28:04.439Z,17.46
2019-05-18T08:29:04.423Z,17.56
2019-05-18T08:30:04.421Z,17.72
2019-05-18T08:31:04.430Z,17.86
2019-05-18T08:32:04.391Z,17.96
2019-05-18T08:33:04.440Z,18.05
2019-05-18T08:34:04.369Z,18.11
2019-05-18T08:35:04.365Z,18.06
2019-05-18T08:36:04.371Z,18.23
2019-05-18T08:37:04.339Z,18.26
2019-05-18T08:38:04.330Z,18.49
2019-05-18T08:39:04.376Z,18.61
2019-05-18T08:40:04.307Z,18.76
2019-05-18T08:41:04.299Z,18.70
2019-05-18T08:42:04.405Z,18.82
2019-05-18T08:43:04.277Z,18.86
2019-05-18T08:44:04.264Z,18.85
2019-05-18T08:45:04.306Z,18.89
2019-05-18T08:46:04.241Z,19.04
2019-05-18T08:47:04.229Z,19.12
2019-05-18T08:48:04.256Z,19.20
2019-05-18T08:49:04.212Z,19.15
2019-05-18T08:50:04.204Z,19.24
2019-05-18T08:51:04.238Z,19.22
2019-05-18T08:52:08.204Z,19.22
2019-05-18T08:53:04.186Z,19.19
2019-05-18T08:54:04.163Z,19.34
2019-05-18T08:55:04.144Z,19.39
2019-05-18T08:56:04.137Z,19.12
2019-05-18T08:57:04.158Z,19.15
2019-05-18T08:58:04.132Z,19.12
2019-05-18T08:59:04.096Z,18.91
2019-05-18T09:00:04.085Z,18.82
2019-05-18T09:01:04.096Z,18.88
2019-05-18T09:02:04.068Z,18.93
2019-05-18T09:03:04.096Z,18.97
2019-05-18T09:04:04.059Z,19.15
2019-05-18T09:05:04.968Z,19.13
2019-05-18T09:06:04.020Z,19.12
2019-05-18T09:07:04.047Z,18.91
2019-05-18T09:08:04.176Z,19.00
2019-05-18T09:09:04.027Z,19.04
2019-05-18T09:10:03.977Z,18.93
2019-05-18T09:11:03.997Z,19.12
2019-05-18T09:12:04.011Z,19.07
2019-05-18T09:13:03.944Z,19.38
2019-05-18T09:14:03.930Z,19.37
2019-05-18T09:15:03.999Z,19.31
2019-05-18T09:16:03.908Z,19.47
2019-05-18T09:17:03.895Z,19.67
2019-05-18T09:18:04.998Z,19.70
2019-05-18T09:19:03.875Z,19.72
2019-05-18T09:20:03.879Z,19.77
2019-05-18T09:21:03.896Z,19.75
2019-05-18T09:22:03.859Z,19.70
2019-05-18T09:23:03.833Z,19.97
2019-05-18T09:24:03.830Z,19.89
2019-05-18T09:25:03.865Z,20.04
2019-05-18T09:26:03.801Z,20.09
2019-05-18T09:27:03.849Z,20.12
2019-05-18T09:28:03.787Z,20.17
2019-05-18T09:29:03.801Z,20.05
2019-05-18T09:30:03.827Z,20.04
2019-05-18T09:31:03.757Z,20.09
2019-05-18T09:32:04.150Z,19.78
2019-05-18T09:33:03.766Z,19.68
2019-05-18T09:34:03.737Z,19.68
2019-05-18T09:35:03.739Z,19.62
2019-05-18T09:36:03.918Z,19.56
2019-05-18T09:37:03.682Z,19.50
2019-05-18T09:38:03.671Z,19.49
2019-05-18T09:39:03.707Z,19.59
2019-05-18T09:40:03.802Z,19.63
2019-05-18T09:41:03.678Z,19.54
2019-05-18T09:42:03.650Z,19.56
2019-05-18T09:43:03.637Z,19.75
2019-05-18T09:44:03.635Z,19.57
2019-05-18T09:45:03.631Z,19.44
2019-05-18T09:46:03.802Z,19.35
2019-05-18T09:47:03.679Z,19.56
2019-05-18T09:48:03.631Z,19.74
2019-05-18T09:49:03.560Z,19.75
2019-05-18T09:50:03.554Z,19.89
2019-05-18T09:51:03.588Z,19.93
2019-05-18T09:52:03.588Z,19.99
2019-05-18T09:53:03.622Z,19.79
2019-05-18T09:54:03.507Z,19.59
2019-05-18T09:55:03.497Z,19.59
2019-05-18T09:56:03.510Z,19.79
2019-05-18T09:57:03.505Z,19.90
2019-05-18T09:58:03.489Z,20.00
2019-05-18T09:59:03.454Z,19.96
2019-05-18T10:00:03.437Z,20.09
2019-05-18T10:01:03.427Z,20.11
2019-05-18T10:02:03.438Z,20.11
2019-05-18T10:03:03.487Z,20.29
2019-05-18T10:04:03.403Z,20.12
2019-05-18T10:05:03.525Z,20.12
2019-05-18T10:06:03.483Z,20.05
2019-05-18T10:07:03.434Z,20.12
2019-05-18T10:08:03.393Z,20.09
2019-05-18T10:09:03.392Z,20.08
2019-05-18T10:10:03.368Z,20.02
2019-05-18T10:11:03.330Z,19.90
2019-05-18T10:12:03.313Z,19.87
2019-05-18T10:13:03.310Z,19.99
2019-05-18T10:14:03.313Z,20.07
2019-05-18T10:15:03.375Z,19.97
2019-05-18T10:16:03.276Z,20.12
2019-05-18T10:17:03.261Z,20.09
2019-05-18T10:18:03.257Z,20.15
2019-05-18T10:19:03.251Z,20.08
2019-05-18T10:20:03.273Z,19.99
2019-05-18T10:21:03.297Z,20.11
2019-05-18T10:22:03.201Z,20.08
2019-05-18T10:23:12.428Z,20.08
2019-05-18T10:24:04.188Z,20.05
2019-05-18T10:25:03.173Z,19.93
2019-05-18T10:26:03.165Z,19.89
2019-05-18T10:27:03.183Z,19.96
2019-05-18T10:28:03.142Z,19.93
2019-05-18T10:29:03.145Z,19.96
2019-05-18T10:30:03.120Z,19.94
2019-05-18T10:31:03.117Z,19.93
2019-05-18T10:32:03.099Z,19.97
2019-05-18T10:33:03.125Z,20.07
2019-05-18T10:34:03.074Z,20.11
2019-05-18T10:35:03.083Z,20.09
2019-05-18T10:36:03.051Z,20.08
2019-05-18T10:37:03.043Z,20.11
2019-05-18T10:38:03.055Z,20.22
2019-05-18T10:39:03.193Z,20.27
2019-05-18T10:40:03.012Z,20.33
2019-05-18T10:41:03.010Z,20.44
2019-05-18T10:42:02.982Z,20.48
2019-05-18T10:43:02.994Z,20.55
2019-05-18T10:44:03.187Z,20.50
2019-05-18T10:45:02.988Z,20.56
2019-05-18T10:46:02.948Z,20.53
2019-05-18T10:47:02.937Z,20.56
2019-05-18T10:48:03.023Z,20.42
2019-05-18T10:49:02.915Z,20.26
2019-05-18T10:50:02.920Z,20.25
2019-05-18T10:51:05.510Z,20.25
2019-05-18T10:52:02.886Z,20.18
2019-05-18T10:53:03.058Z,20.08
2019-05-18T10:54:02.877Z,20.11
2019-05-18T10:55:02.847Z,20.07
2019-05-18T10:56:02.977Z,20.00
2019-05-18T10:57:02.858Z,19.96
2019-05-18T10:58:02.814Z,19.92
2019-05-18T10:59:02.835Z,19.99
2019-05-18T11:00:02.830Z,20.08
2019-05-18T11:01:02.801Z,19.93
2019-05-18T11:02:02.774Z,19.96
2019-05-18T11:03:02.865Z,19.97
2019-05-18T11:04:02.769Z,19.94
2019-05-18T11:05:02.736Z,20.00
2019-05-18T11:06:02.727Z,19.93
2019-05-18T11:07:02.719Z,19.86
2019-05-18T11:08:02.723Z,19.87
2019-05-18T11:09:02.752Z,19.96
2019-05-18T11:10:02.707Z,19.92
2019-05-18T11:11:02.741Z,19.96
2019-05-18T11:12:02.664Z,20.07
2019-05-18T11:13:02.653Z,20.02
2019-05-18T11:14:02.668Z,19.96
2019-05-18T11:15:02.665Z,20.00
2019-05-18T11:16:02.633Z,20.02
2019-05-18T11:17:02.611Z,20.08
2019-05-18T11:18:02.618Z,20.15
2019-05-18T11:19:02.586Z,20.11
2019-05-18T11:20:02.594Z,20.14
2019-05-18T11:21:02.589Z,20.15
2019-05-18T11:22:02.555Z,20.11
2019-05-18T11:23:02.539Z,20.11
2019-05-18T11:24:02.523Z,20.11
2019-05-18T11:25:02.512Z,20.02
2019-05-18T11:26:02.517Z,19.96
2019-05-18T11:27:02.707Z,19.99
2019-05-18T11:28:02.503Z,20.09
2019-05-18T11:29:02.493Z,19.96
2019-05-18T11:30:02.770Z,19.94
2019-05-18T11:31:02.451Z,19.97
2019-05-18T11:32:02.459Z,20.04
2019-05-18T11:33:02.475Z,20.00
2019-05-18T11:34:02.413Z,19.82
2019-05-18T11:35:02.407Z,19.77
2019-05-18T11:36:02.417Z,19.78
2019-05-18T11:37:03.176Z,19.78
2019-05-18T11:38:02.387Z,19.70
2019-05-18T11:39:02.397Z,19.68
2019-05-18T11:40:02.368Z,19.71
2019-05-18T11:41:02.335Z,19.68
2019-05-18T11:42:02.333Z,19.63
2019-05-18T11:43:02.373Z,19.54
2019-05-18T11:44:02.307Z,19.52
2019-05-18T11:45:02.336Z,19.44
2019-05-18T11:46:02.382Z,19.44
2019-05-18T11:47:02.275Z,19.38
2019-05-18T11:48:02.275Z,19.39
2019-05-18T11:49:02.296Z,19.41
2019-05-18T11:50:02.248Z,19.27
2019-05-18T11:51:02.397Z,19.26
2019-05-18T11:52:02.222Z,19.22
2019-05-18T11:53:02.306Z,19.19
2019-05-18T11:54:02.250Z,19.20
2019-05-18T11:55:02.370Z,19.13
2019-05-18T11:56:02.179Z,19.15
2019-05-18T11:57:02.225Z,19.08
2019-05-18T11:58:02.159Z,19.05
2019-05-18T11:59:02.153Z,18.89
2019-05-18T12:00:02.269Z,18.81
2019-05-18T12:01:02.119Z,18.82
2019-05-18T12:02:02.177Z,18.81
2019-05-18T12:03:02.161Z,18.89
2019-05-18T12:04:02.103Z,18.96
2019-05-18T12:05:02.075Z,19.01
2019-05-18T12:06:02.081Z,19.05
2019-05-18T12:07:02.070Z,19.15
2019-05-18T12:08:02.037Z,19.08
2019-05-18T12:09:02.082Z,19.22
2019-05-18T12:10:02.024Z,19.20
2019-05-18T12:11:02.005Z,19.34
2019-05-18T12:12:02.007Z,19.35
2019-05-18T12:13:01.985Z,19.44
2019-05-18T12:14:02.017Z,19.47
2019-05-18T12:15:02.125Z,19.49
2019-05-18T12:16:01.950Z,19.44
2019-05-18T12:17:01.957Z,19.31
2019-05-18T12:18:01.925Z,19.24
2019-05-18T12:19:01.916Z,19.34
2019-05-18T12:20:01.905Z,19.32
2019-05-18T12:21:01.928Z,19.45
2019-05-18T12:22:01.894Z,19.47
2019-05-18T12:23:01.883Z,19.45
2019-05-18T12:24:14.618Z,19.52
2019-05-18T12:25:02.846Z,19.57
2019-05-18T12:26:01.837Z,19.53
2019-05-18T12:27:01.873Z,19.54
2019-05-18T12:28:02.084Z,19.60
2019-05-18T12:29:01.824Z,19.62
2019-05-18T12:30:01.795Z,19.75
2019-05-18T12:31:02.232Z,19.72
2019-05-18T12:32:01.774Z,19.82
2019-05-18T12:33:01.809Z,19.84
2019-05-18T12:34:01.748Z,19.70
2019-05-18T12:35:01.760Z,19.75
2019-05-18T12:36:01.727Z,19.72
2019-05-18T12:37:01.727Z,19.64
2019-05-18T12:38:01.809Z,19.89
2019-05-18T12:39:01.777Z,19.84
2019-05-18T12:40:01.683Z,19.96
2019-05-18T12:41:01.691Z,19.96
2019-05-18T12:42:01.665Z,19.92
2019-05-18T12:43:01.657Z,19.93
2019-05-18T12:44:01.636Z,19.77
2019-05-18T12:45:01.664Z,19.68
2019-05-18T12:46:01.616Z,19.75
2019-05-18T12:47:01.636Z,19.74
2019-05-18T12:48:01.597Z,19.89
2019-05-18T12:49:01.620Z,19.96
2019-05-18T12:50:01.571Z,20.11
2019-05-18T12:51:01.607Z,20.41
2019-05-18T12:52:01.550Z,20.56
2019-05-18T12:53:01.590Z,21.05
2019-05-18T12:54:01.534Z,21.40